Time;durP1;ratioP1;P1;durP2;ratioP2;P2;SDS_P1;SDS_P2;PMS_P1;PMS_P2;Temp;Humidity;BMP_temperature;BMP_pressure;BME280_temperature;BME280_humidity;BME280_pressure;Samples;Min_cycle;Max_cycle;Signal;HPM_P1;HPM_P2
2022/10/30 00:00:56;;;;;;;97.65;51.35;;;282.50;2278.40;;;;;;5084947;28;20036;-80
2022/10/30 00:03:22;;;;;;;130.52;53.40;;;282.50;2278.40;;;;;;5094397;28;20096;-80
2022/10/30 00:05:50;;;;;;;205.07;67.45;;;282.50;2278.40;;;;;;5125956;27;20538;-80
2022/10/30 00:08:18;;;;;;;264.38;76.38;;;282.40;2278.40;;;;;;5127224;27;20028;-80
2022/10/30 00:10:45;;;;;;;220.10;75.97;;;282.30;2278.40;;;;;;5093517;28;20043;-80
2022/10/30 00:13:12;;;;;;;211.27;72.32;;;282.30;2278.40;;;;;;5092849;28;20036;-80
2022/10/30 00:15:38;;;;;;;157.48;61.88;;;282.20;2278.40;;;;;;5096304;28;20040;-80
2022/10/30 00:18:04;;;;;;;165.38;63.55;;;282.10;2278.40;;;;;;5103479;28;20064;-80
2022/10/30 00:20:30;;;;;;;205.95;65.85;;;282.10;2278.40;;;;;;5094452;28;20192;-80
2022/10/30 00:22:56;;;;;;;185.00;57.22;;;282.10;2278.40;;;;;;5112982;28;20036;-80
2022/10/30 00:25:22;;;;;;;136.00;60.17;;;282.10;2278.40;;;;;;5100400;28;20020;-80
2022/10/30 00:27:47;;;;;;;;;;;282.20;2278.40;;;;;;5095227;28;20066;-80
2022/10/30 00:30:14;;;;;;;103.65;47.88;;;282.20;2278.40;;;;;;5093758;28;19927;-80
2022/10/30 00:32:41;;;;;;;123.72;49.50;;;282.20;2278.40;;;;;;5089819;28;20111;-81
2022/10/30 00:35:08;;;;;;;153.15;50.67;;;282.30;2278.40;;;;;;5085334;28;20466;-80
2022/10/30 00:37:34;;;;;;;186.43;56.55;;;282.30;2278.40;;;;;;5127577;27;20070;-80
2022/10/30 00:39:59;;;;;;;189.45;69.47;;;282.20;2278.40;;;;;;5101919;28;20024;-81
2022/10/30 00:42:29;;;;;;;177.75;73.78;;;282.20;2278.40;;;;;;5099944;28;20043;-79
2022/10/30 00:44:55;;;;;;;152.98;86.32;;;282.20;2278.40;;;;;;5127830;27;20024;-80
2022/10/30 00:47:43;;;;;;;287.40;107.93;;;282.40;2278.40;;;;;;5114720;27;20027;-80
2022/10/30 00:50:18;;;;;;;477.10;135.15;;;282.50;2278.40;;;;;;5082353;28;20020;-80
2022/10/30 00:53:10;;;;;;;384.00;131.00;;;282.20;2278.40;;;;;;5127837;27;20428;-80
2022/10/30 00:55:44;;;;;;;457.10;141.38;;;282.10;2278.40;;;;;;5093439;28;20115;-80
2022/10/30 00:58:14;;;;;;;282.35;131.20;;;282.10;2278.40;;;;;;5109361;28;20020;-80
2022/10/30 01:00:45;;;;;;;430.45;146.20;;;282.20;2278.40;;;;;;5093810;28;20133;-80
2022/10/30 01:03:11;;;;;;;351.08;140.30;;;282.30;2278.40;;;;;;5094013;28;20031;-80
2022/10/30 01:05:38;;;;;;;317.35;139.65;;;282.40;2278.40;;;;;;5135806;27;20020;-80
2022/10/30 01:08:04;;;;;;;430.30;142.05;;;282.40;2278.40;;;;;;5097250;28;20040;-81
2022/10/30 01:10:30;;;;;;;335.35;108.93;;;282.50;2278.40;;;;;;5091679;28;20028;-80
2022/10/30 01:12:57;;;;;;;165.00;77.00;;;307.20;2304.00;;;;;;5091068;28;20043;-80
2022/10/30 01:15:29;;;;;;;161.30;63.75;;;307.30;2304.00;;;;;;5140367;27;20036;-81
2022/10/30 01:17:57;;;;;;;124.95;60.17;;;307.20;2304.00;;;;;;5092384;28;20062;-80
2022/10/30 01:20:47;;;;;;;145.98;60.08;;;282.50;2278.40;;;;;;5093216;28;20025;-80
2022/10/30 01:24:00;;;;;;;161.50;60.22;;;282.50;2099.20;;;;;;5092931;28;20043;-80
2022/10/30 01:26:36;;;;;;;105.40;57.83;;;282.40;1945.60;;;;;;5093094;28;20016;-79
2022/10/30 01:29:08;;;;;;;131.85;48.15;;;282.50;2022.40;;;;;;5125699;27;20497;-81
2022/10/30 01:31:54;;;;;;;112.22;57.28;;;282.50;2278.40;;;;;;5091636;28;20047;-80
2022/10/30 01:34:25;;;;;;;131.63;48.97;;;282.50;1894.40;;;;;;5091729;28;20016;-80
2022/10/30 01:37:01;;;;;;;89.25;40.55;;;282.40;2278.40;;;;;;5092776;28;20482;-80
2022/10/30 01:39:31;;;;;;;;;;;282.30;2278.40;;;;;;5092327;28;20012;-80
2022/10/30 01:41:57;;;;;;;69.63;26.92;;;282.30;1945.60;;;;;;5092645;28;19924;-80
2022/10/30 01:44:29;;;;;;;80.00;26.08;;;282.30;2278.40;;;;;;5125879;27;20533;-80
2022/10/30 01:47:50;;;;;;;98.90;24.80;;;282.30;2278.40;;;;;;5125639;27;20119;-80
2022/10/30 01:50:32;;;;;;;42.72;23.92;;;282.30;2278.40;;;;;;5087739;28;20039;-81
2022/10/30 01:53:09;;;;;;;74.00;23.90;;;282.40;2278.40;;;;;;5125438;27;20043;-80
2022/10/30 01:55:44;;;;;;;60.72;21.80;;;282.40;1894.40;;;;;;5125236;27;20458;-81
2022/10/30 01:58:23;;;;;;;66.00;22.60;;;282.40;2278.40;;;;;;5091756;28;20024;-81
2022/10/30 02:00:59;;;;;;;54.13;20.42;;;282.30;2278.40;;;;;;5139013;27;20039;-81
2022/10/30 02:03:26;;;;;;;98.18;22.63;;;282.30;2278.40;;;;;;5096074;28;20043;-81
2022/10/30 02:05:53;;;;;;;73.47;21.65;;;282.40;2278.40;;;;;;5129305;27;20078;-80
2022/10/30 02:08:20;;;;;;;55.10;18.52;;;282.30;2099.20;;;;;;5129395;27;20028;-81
2022/10/30 02:10:48;;;;;;;85.75;20.95;;;282.30;2278.40;;;;;;5129409;27;20035;-81
2022/10/30 02:13:14;;;;;;;48.58;19.55;;;282.30;2278.40;;;;;;5129242;27;20028;-81
2022/10/30 02:15:41;;;;;;;44.90;19.83;;;282.20;2278.40;;;;;;5095299;28;20032;-80
2022/10/30 02:18:08;;;;;;;72.18;22.08;;;282.20;2278.40;;;;;;5129077;27;20024;-81
2022/10/30 02:20:34;;;;;;;66.57;23.75;;;282.10;2278.40;;;;;;5129214;27;20031;-80
2022/10/30 02:22:59;;;;;;;53.38;24.63;;;282.10;2278.40;;;;;;5094873;28;20044;-80
2022/10/30 02:25:25;;;;;;;61.58;26.13;;;282.10;2278.40;;;;;;5095371;28;20058;-80
2022/10/30 02:27:51;;;;;;;49.72;26.98;;;282.10;2278.40;;;;;;5129412;27;20035;-80
2022/10/30 02:30:17;;;;;;;59.25;27.10;;;282.10;2278.40;;;;;;5128911;27;20070;-80
2022/10/30 02:32:43;;;;;;;45.05;27.27;;;282.00;2278.40;;;;;;5129034;27;20028;-80
2022/10/30 02:35:09;;;;;;;61.45;27.00;;;282.10;2278.40;;;;;;5128886;27;20016;-80
2022/10/30 02:37:34;;;;;;;51.85;24.10;;;282.10;2278.40;;;;;;5128842;27;20036;-80
2022/10/30 02:40:04;;;;;;;47.15;23.15;;;282.00;2278.40;;;;;;5128767;27;20486;-81
2022/10/30 02:42:30;;;;;;;50.63;24.48;;;281.90;2278.40;;;;;;5109742;28;20039;-80
2022/10/30 02:44:55;;;;;;;48.03;23.40;;;281.80;2278.40;;;;;;5108146;28;20016;-80
2022/10/30 02:47:21;;;;;;;53.33;22.95;;;281.80;2278.40;;;;;;5128818;27;20489;-81
2022/10/30 02:49:47;;;;;;;43.85;23.83;;;281.70;2278.40;;;;;;5128419;27;20121;-80
2022/10/30 02:52:13;;;;;;;55.83;22.73;;;281.90;2278.40;;;;;;5139995;27;20023;-80
2022/10/30 02:54:38;;;;;;;53.58;21.85;;;282.00;2278.40;;;;;;5097874;28;20469;-81
2022/10/30 02:57:04;;;;;;;51.60;21.95;;;282.00;2278.40;;;;;;5128444;27;20094;-80
2022/10/30 02:59:30;;;;;;;40.13;23.08;;;282.10;2278.40;;;;;;5094584;28;20490;-81
2022/10/30 03:01:55;;;;;;;43.42;23.05;;;282.10;2278.40;;;;;;5128051;27;20039;-80
2022/10/30 03:04:22;;;;;;;36.63;22.15;;;282.10;2278.40;;;;;;5095692;28;20359;-80
2022/10/30 03:06:47;;;;;;;46.25;23.27;;;282.20;2278.40;;;;;;5128006;27;20076;-80
2022/10/30 03:09:13;;;;;;;39.70;23.02;;;282.20;2278.40;;;;;;5128184;27;20036;-81
2022/10/30 03:11:39;;;;;;;48.53;23.17;;;282.30;2278.40;;;;;;5127209;27;20118;-81
2022/10/30 03:14:04;;;;;;;47.95;23.40;;;282.20;1894.40;;;;;;5094148;28;20478;-81
2022/10/30 03:16:32;;;;;;;48.28;24.83;;;282.10;2278.40;;;;;;5127868;27;20045;-77
2022/10/30 03:18:58;;;;;;;39.92;24.83;;;282.00;2278.40;;;;;;5127503;27;20039;-79
2022/10/30 03:21:26;;;;;;;57.55;25.25;;;282.10;2278.40;;;;;;5118350;27;20624;-78
2022/10/30 03:23:53;;;;;;;72.18;31.58;;;282.20;2278.40;;;;;;5088016;28;20493;-78
2022/10/30 03:26:20;;;;;;;63.95;32.28;;;282.10;2278.40;;;;;;5127361;27;20020;-78
2022/10/30 03:28:46;;;;;;;58.67;32.30;;;282.30;2278.40;;;;;;5127011;27;20032;-77
2022/10/30 03:31:15;;;;;;;54.38;32.03;;;282.30;2252.80;;;;;;5093998;28;20492;-77
2022/10/30 03:33:42;;;;;;;56.67;32.72;;;282.40;2227.20;;;;;;5093033;28;20119;-78
2022/10/30 03:36:09;;;;;;;86.90;38.92;;;282.50;2278.40;;;;;;5092663;28;20024;-78
2022/10/30 03:38:36;;;;;;;75.45;45.15;;;282.50;2278.40;;;;;;5092645;28;20409;-78
2022/10/30 03:41:02;;;;;;;92.13;50.55;;;282.40;2278.40;;;;;;5094280;28;20098;-78
2022/10/30 03:43:28;;;;;;;104.68;60.53;;;282.20;2278.40;;;;;;5092495;28;20047;-79
2022/10/30 03:45:55;;;;;;;115.57;64.78;;;282.20;1945.60;;;;;;5126519;27;20020;-78
2022/10/30 03:48:23;;;;;;;116.15;73.63;;;282.10;1920.00;;;;;;5133818;27;20094;-77
2022/10/30 03:50:52;;;;;;;173.73;75.35;;;282.10;2278.40;;;;;;5099359;28;20020;-77
2022/10/30 03:53:17;;;;;;;132.00;75.03;;;282.10;1945.60;;;;;;5112161;27;20020;-78
2022/10/30 03:55:43;;;;;;;168.40;81.05;;;282.10;2278.40;;;;;;5126330;27;20055;-78
2022/10/30 03:58:09;;;;;;;171.85;88.75;;;282.00;2227.20;;;;;;5093679;28;20049;-79
2022/10/30 04:00:35;;;;;;;136.20;85.90;;;282.00;2278.40;;;;;;5092495;28;20078;-77
2022/10/30 04:03:05;;;;;;;128.00;87.78;;;282.10;2278.40;;;;;;5126207;27;20125;-77
2022/10/30 04:05:30;;;;;;;230.10;103.82;;;282.20;2278.40;;;;;;5126463;27;20020;-78
2022/10/30 04:07:58;;;;;;;248.90;111.00;;;282.10;2278.40;;;;;;5125869;27;20035;-77
2022/10/30 04:10:24;;;;;;;226.20;116.47;;;282.10;1971.20;;;;;;5126201;27;20030;-78
2022/10/30 04:12:51;;;;;;;361.50;139.70;;;282.00;2099.20;;;;;;5134674;27;20101;-77
2022/10/30 04:15:18;;;;;;;278.00;149.23;;;282.00;2278.40;;;;;;5097494;28;20020;-77
2022/10/30 04:17:50;;;;;;;340.48;161.85;;;282.00;2278.40;;;;;;5092579;28;20024;-77
2022/10/30 04:20:18;;;;;;;393.83;182.88;;;282.00;2278.40;;;;;;5093304;28;20041;-77
2022/10/30 04:22:43;;;;;;;379.27;192.57;;;282.00;2278.40;;;;;;5092165;28;20039;-77
2022/10/30 04:25:09;;;;;;;340.85;201.93;;;282.00;2278.40;;;;;;5126230;27;20024;-78
2022/10/30 04:27:40;;;;;;;371.15;208.40;;;282.20;2278.40;;;;;;5125985;27;20036;-77
2022/10/30 04:30:06;;;;;;;525.78;260.00;;;282.30;2278.40;;;;;;5125863;27;20032;-76
2022/10/30 04:32:32;;;;;;;497.58;266.60;;;282.10;2278.40;;;;;;5125896;27;20024;-78
2022/10/30 04:34:57;;;;;;;502.40;284.42;;;282.20;2278.40;;;;;;5100241;28;20366;-78
2022/10/30 04:37:23;;;;;;;534.42;294.05;;;282.30;2278.40;;;;;;5097252;27;20032;-77
2022/10/30 04:39:49;;;;;;;489.55;293.23;;;282.30;2278.40;;;;;;5091433;28;20482;-78
2022/10/30 04:42:15;;;;;;;724.05;323.70;;;282.30;2278.40;;;;;;5125877;27;20040;-78
2022/10/30 04:44:41;;;;;;;553.88;300.98;;;282.30;2278.40;;;;;;5091166;28;20390;-77
2022/10/30 04:47:06;;;;;;;705.85;322.67;;;282.30;2278.40;;;;;;5091638;28;20039;-78
2022/10/30 04:49:32;;;;;;;786.95;345.45;;;282.30;2278.40;;;;;;5125160;27;20494;-77
2022/10/30 04:51:58;;;;;;;781.83;348.73;;;282.40;2278.40;;;;;;5092588;28;20027;-78
2022/10/30 04:54:23;;;;;;;585.47;325.25;;;282.30;2278.40;;;;;;5125498;27;20063;-78
2022/10/30 04:56:49;;;;;;;919.47;364.83;;;282.30;2278.40;;;;;;5125220;27;20020;-77
2022/10/30 04:59:15;;;;;;;547.28;321.13;;;282.30;2278.40;;;;;;5125638;27;20461;-78
2022/10/30 05:01:41;;;;;;;717.55;312.08;;;282.30;2278.40;;;;;;5124917;27;20085;-76
2022/10/30 05:04:06;;;;;;;418.02;219.82;;;282.40;2278.40;;;;;;5091375;28;20068;-77
2022/10/30 05:06:32;;;;;;;351.15;187.30;;;282.40;2278.40;;;;;;5125020;27;20032;-78
2022/10/30 05:08:58;;;;;;;326.85;178.57;;;282.40;2201.60;;;;;;5091321;28;20111;-77
2022/10/30 05:11:24;;;;;;;305.20;159.95;;;282.30;2176.00;;;;;;5124820;27;20470;-77
2022/10/30 05:13:49;;;;;;;;;;;282.30;2278.40;;;;;;5105955;28;20397;-78
2022/10/30 05:16:15;;;;;;;270.97;127.33;;;282.30;2278.40;;;;;;5090966;28;19908;-78
2022/10/30 05:18:41;;;;;;;;;;;282.30;2278.40;;;;;;5093310;28;20457;-79
2022/10/30 05:21:06;;;;;;;212.93;110.28;;;282.30;2278.40;;;;;;5091697;28;19904;-79
2022/10/30 05:23:32;;;;;;;;;;;282.40;2278.40;;;;;;5139018;27;20042;-79
2022/10/30 05:26:01;;;;;;;174.65;89.97;;;282.30;2278.40;;;;;;5092803;28;19908;-79
2022/10/30 05:28:27;;;;;;;156.43;87.53;;;282.40;2278.40;;;;;;5102792;28;20098;-79
2022/10/30 05:30:53;;;;;;;140.95;81.65;;;282.50;2022.40;;;;;;5094679;28;20024;-79
2022/10/30 05:33:19;;;;;;;120.45;68.90;;;282.40;2278.40;;;;;;5134985;27;20035;-79
2022/10/30 05:35:45;;;;;;;105.18;60.47;;;282.30;1996.80;;;;;;5100248;28;20569;-79
2022/10/30 05:38:11;;;;;;;80.68;51.83;;;282.30;2073.60;;;;;;5129733;27;20067;-79
2022/10/30 05:40:37;;;;;;;80.18;48.33;;;282.40;2099.20;;;;;;5095848;28;20115;-79
2022/10/30 05:43:04;;;;;;;96.03;44.47;;;282.40;2278.40;;;;;;5134937;27;20122;-79
2022/10/30 05:45:30;;;;;;;72.63;36.38;;;282.30;2278.40;;;;;;5104124;28;20025;-79
2022/10/30 05:48:04;;;;;;;80.82;35.58;;;282.20;2278.40;;;;;;5096465;28;20027;-79
2022/10/30 05:50:30;;;;;;;83.32;37.50;;;282.10;2278.40;;;;;;5140186;27;20066;-79
2022/10/30 05:53:00;;;;;;;71.85;35.47;;;282.00;2227.20;;;;;;5098962;28;20107;-79
2022/10/30 05:55:26;;;;;;;91.63;38.78;;;282.00;2278.40;;;;;;5129382;27;20074;-80
2022/10/30 05:57:56;;;;;;;84.65;34.42;;;282.00;2278.40;;;;;;5130639;27;20028;-80
2022/10/30 06:00:22;;;;;;;83.95;33.75;;;282.10;2278.40;;;;;;5107669;27;20036;-79
2022/10/30 06:02:47;;;;;;;90.53;33.83;;;282.00;2278.40;;;;;;5129313;27;20059;-79
2022/10/30 06:05:13;;;;;;;;;;;282.00;2278.40;;;;;;5101445;28;20081;-79
2022/10/30 06:07:39;;;;;;;80.55;30.80;;;282.10;2278.40;;;;;;5103047;28;19956;-79
2022/10/30 06:10:05;;;;;;;57.53;29.75;;;282.10;2278.40;;;;;;5129210;27;20062;-79
2022/10/30 06:12:31;;;;;;;54.45;28.23;;;282.10;2278.40;;;;;;5132940;27;20051;-82
2022/10/30 06:14:56;;;;;;;48.00;26.42;;;282.20;2278.40;;;;;;5106778;28;20117;-80
2022/10/30 06:17:22;;;;;;;40.53;24.40;;;282.30;2022.40;;;;;;5097430;28;20024;-82
2022/10/30 06:19:48;;;;;;;48.47;26.90;;;282.30;2278.40;;;;;;5128491;27;20024;-81
2022/10/30 06:22:14;;;;;;;38.78;22.65;;;282.30;2278.40;;;;;;5128789;27;20390;-79
2022/10/30 06:24:39;;;;;;;35.72;22.77;;;282.40;2278.40;;;;;;5129223;27;20074;-85
2022/10/30 06:27:05;;;;;;;36.53;23.17;;;282.30;2278.40;;;;;;5114993;27;20490;-83
2022/10/30 06:29:31;;;;;;;29.27;18.95;;;282.40;2278.40;;;;;;5108999;28;20020;-85
2022/10/30 06:31:57;;;;;;;28.40;20.33;;;282.40;2278.40;;;;;;5106657;28;20071;-81
2022/10/30 06:34:22;;;;;;;26.85;19.33;;;282.40;2278.40;;;;;;5114767;28;20024;-86
2022/10/30 06:36:48;;;;;;;27.65;18.65;;;282.50;2278.40;;;;;;5115348;28;20080;-81
2022/10/30 06:39:14;;;;;;;32.03;18.67;;;282.50;2278.40;;;;;;5113205;28;20540;-81
2022/10/30 06:41:39;;;;;;;25.10;17.60;;;282.50;2278.40;;;;;;5094667;28;20047;-78
2022/10/30 06:44:05;;;;;;;25.70;17.80;;;282.50;2278.40;;;;;;5143201;27;20386;-80
2022/10/30 06:46:31;;;;;;;24.65;16.73;;;307.20;2304.00;;;;;;5093848;27;20035;-80
2022/10/30 06:48:57;;;;;;;23.80;16.52;;;307.40;2304.00;;;;;;5127200;27;20067;-78
2022/10/30 06:51:22;;;;;;;25.85;16.73;;;307.40;2304.00;;;;;;5108880;28;20024;-80
2022/10/30 06:53:48;;;;;;;29.77;18.92;;;282.50;2278.40;;;;;;5138796;27;20012;-81
2022/10/30 06:56:14;;;;;;;29.65;20.10;;;282.50;2278.40;;;;;;5098369;28;20077;-79
2022/10/30 06:58:39;;;;;;;34.00;22.17;;;307.30;2304.00;;;;;;5128482;27;20024;-81
2022/10/30 07:01:05;;;;;;;30.20;20.65;;;307.30;2304.00;;;;;;5128035;27;20394;-80
2022/10/30 07:03:32;;;;;;;32.78;21.75;;;307.40;2304.00;;;;;;5128176;27;20544;-80
2022/10/30 07:05:58;;;;;;;31.65;20.50;;;307.50;2304.00;;;;;;5128546;27;20031;-88
2022/10/30 07:08:23;;;;;;;30.75;20.67;;;307.60;2304.00;;;;;;5128752;27;20394;-81
2022/10/30 07:10:49;;;;;;;29.33;21.35;;;307.60;2304.00;;;;;;5093748;28;20028;-80
2022/10/30 07:13:16;;;;;;;31.40;21.75;;;307.60;2304.00;;;;;;5095139;28;20024;-83
2022/10/30 07:15:42;;;;;;;33.92;22.42;;;307.70;2304.00;;;;;;5112444;28;20076;-83
2022/10/30 07:18:09;;;;;;;36.80;23.35;;;307.80;2304.00;;;;;;5104205;28;20024;-83
2022/10/30 07:20:35;;;;;;;31.10;23.05;;;307.80;2304.00;;;;;;5144556;27;20433;-80
2022/10/30 07:23:02;;;;;;;39.53;22.85;;;307.80;2304.00;;;;;;5114532;28;20059;-84
2022/10/30 07:25:28;;;;;;;31.95;22.58;;;307.80;2304.00;;;;;;5099340;28;20452;-81
2022/10/30 07:27:55;;;;;;;29.83;21.77;;;307.90;2304.00;;;;;;5093548;28;20478;-81
2022/10/30 07:30:23;;;;;;;30.13;21.60;;;308.10;2304.00;;;;;;5093977;28;20035;-83
2022/10/30 07:33:04;;;;;;;32.15;22.05;;;332.80;2329.60;;;;;;5098452;28;20027;-83
2022/10/30 07:35:33;;;;;;;30.17;20.23;;;332.80;2329.60;;;;;;5099941;28;20024;-84
2022/10/30 07:38:09;;;;;;;32.28;20.42;;;332.80;2329.60;;;;;;5127516;27;20111;-81
2022/10/30 07:40:35;;;;;;;33.92;20.98;;;332.90;2329.60;;;;;;5127308;27;20032;-82
2022/10/30 07:43:02;;;;;;;28.38;19.98;;;332.90;2329.60;;;;;;5126643;27;20044;-86
2022/10/30 07:45:28;;;;;;;33.10;21.13;;;332.90;2329.60;;;;;;5116175;27;20073;-85
2022/10/30 07:47:54;;;;;;;32.13;20.40;;;332.90;2329.60;;;;;;5075791;28;20472;-83
2022/10/30 07:50:20;;;;;;;28.35;19.98;;;333.10;2329.60;;;;;;5093717;28;20047;-82
2022/10/30 07:52:46;;;;;;;33.45;21.73;;;333.20;2329.60;;;;;;5109399;28;20477;-87
2022/10/30 07:55:12;;;;;;;32.15;20.17;;;333.10;2329.60;;;;;;5093309;28;20039;-83
2022/10/30 07:57:42;;;;;;;30.17;20.15;;;333.20;2329.60;;;;;;5101307;28;20056;-82
2022/10/30 08:00:11;;;;;;;41.90;22.17;;;333.10;2329.60;;;;;;5105929;28;20027;-86
2022/10/30 08:02:37;;;;;;;40.17;25.35;;;333.10;2329.60;;;;;;5079065;28;20036;-86
2022/10/30 08:05:04;;;;;;;46.38;27.95;;;333.10;2329.60;;;;;;5135919;27;20346;-87
2022/10/30 08:07:32;;;;;;;36.22;23.10;;;333.20;2329.60;;;;;;5103685;28;20024;-88
2022/10/30 08:09:58;;;;;;;36.08;25.02;;;333.30;2329.60;;;;;;5132904;27;20028;-87
2022/10/30 08:12:25;;;;;;;38.10;24.48;;;333.20;2329.60;;;;;;5127285;27;20048;-86
2022/10/30 08:14:51;;;;;;;42.25;28.05;;;333.30;2329.60;;;;;;5093159;28;20031;-83
2022/10/30 08:17:17;;;;;;;46.08;30.90;;;333.40;2329.60;;;;;;5111729;27;20100;-79
2022/10/30 08:19:43;;;;;;;36.90;26.42;;;333.50;2329.60;;;;;;5095924;28;20099;-79
2022/10/30 08:22:13;;;;;;;40.90;25.30;;;333.60;2329.60;;;;;;5097293;28;20435;-79
2022/10/30 08:24:38;;;;;;;43.08;26.60;;;333.60;2329.60;;;;;;5105141;28;20026;-84
2022/10/30 08:27:04;;;;;;;39.90;26.88;;;333.70;2329.60;;;;;;5106462;27;20035;-78
2022/10/30 08:29:31;;;;;;;42.58;26.80;;;333.70;2329.60;;;;;;5096491;28;20031;-78
2022/10/30 08:31:57;;;;;;;45.45;30.35;;;358.40;2329.60;;;;;;5133971;27;20055;-78
2022/10/30 08:34:23;;;;;;;43.05;27.35;;;358.60;2329.60;;;;;;5127318;27;20062;-78
2022/10/30 08:36:50;;;;;;;42.65;27.40;;;358.60;2329.60;;;;;;5108252;28;20111;-79
2022/10/30 08:39:18;;;;;;;41.25;28.40;;;358.60;2329.60;;;;;;5098094;28;20024;-79
2022/10/30 08:41:44;;;;;;;42.30;28.15;;;358.60;2329.60;;;;;;5108729;28;20038;-79
2022/10/30 08:44:10;;;;;;;39.58;26.67;;;358.70;2329.60;;;;;;5099141;28;20051;-78
2022/10/30 08:46:35;;;;;;;43.13;27.27;;;358.70;2329.60;;;;;;5130825;27;20100;-78
2022/10/30 08:49:01;;;;;;;41.15;27.95;;;358.80;2329.60;;;;;;5141027;27;20080;-79
2022/10/30 08:51:27;;;;;;;42.55;26.67;;;358.90;2329.60;;;;;;5097202;28;20083;-79
2022/10/30 08:53:53;;;;;;;46.13;30.23;;;358.90;2329.60;;;;;;5125801;27;20016;-83
2022/10/30 08:56:18;;;;;;;43.60;28.45;;;358.90;2329.60;;;;;;5092702;28;20035;-78
2022/10/30 08:58:44;;;;;;;41.80;28.38;;;358.90;2329.60;;;;;;5091793;28;20115;-80
2022/10/30 09:01:10;;;;;;;43.50;28.98;;;359.00;2329.60;;;;;;5091702;28;20178;-78
2022/10/30 09:03:37;;;;;;;41.15;29.05;;;359.00;2329.60;;;;;;5096209;28;20398;-79
2022/10/30 09:06:03;;;;;;;49.40;30.67;;;359.10;2329.60;;;;;;5111547;28;20115;-80
2022/10/30 09:08:29;;;;;;;53.80;30.15;;;359.10;2329.60;;;;;;5095856;28;20075;-80
2022/10/30 09:10:58;;;;;;;47.97;31.55;;;359.10;2329.60;;;;;;5125291;27;20063;-80
2022/10/30 09:13:24;;;;;;;52.13;32.45;;;359.20;2329.60;;;;;;5125452;27;20036;-79
2022/10/30 09:15:50;;;;;;;43.97;29.92;;;359.30;2329.60;;;;;;5091748;28;20031;-81
2022/10/30 09:18:16;;;;;;;40.80;28.52;;;384.00;2329.60;;;;;;5102975;28;20085;-81
2022/10/30 09:20:42;;;;;;;43.60;28.98;;;384.00;2329.60;;;;;;5112241;28;20020;-84
2022/10/30 09:23:08;;;;;;;43.13;29.40;;;384.10;2329.60;;;;;;5111969;28;20042;-81
2022/10/30 09:25:34;;;;;;;40.50;27.80;;;384.20;2329.60;;;;;;5097170;28;20024;-77
2022/10/30 09:27:59;;;;;;;38.30;26.27;;;384.40;2329.60;;;;;;5103926;28;20020;-78
2022/10/30 09:30:25;;;;;;;40.97;28.85;;;384.70;2329.60;;;;;;5132771;27;20036;-77
2022/10/30 09:32:59;;;;;;;35.22;27.17;;;384.90;2329.60;;;;;;5138293;27;20031;-77
2022/10/30 09:35:25;;;;;;;39.38;27.10;;;409.70;2355.20;;;;;;5099906;28;20377;-76
2022/10/30 09:37:50;;;;;;;37.22;27.27;;;410.00;2355.20;;;;;;5132761;27;20129;-77
2022/10/30 09:40:53;;;;;;;40.47;27.05;;;410.20;2355.20;;;;;;5093777;28;20498;-77
2022/10/30 09:43:19;;;;;;;41.45;27.35;;;410.40;2355.20;;;;;;5093756;28;20036;-77
2022/10/30 09:46:20;;;;;;;43.53;30.27;;;435.20;2355.20;;;;;;5102606;28;20035;-77
2022/10/30 09:49:12;;;;;;;39.13;28.50;;;435.50;2355.20;;;;;;5100547;28;20090;-77
2022/10/30 09:51:59;;;;;;;44.25;30.73;;;435.70;2355.20;;;;;;5081270;28;20123;-78
2022/10/30 09:54:37;;;;;;;40.55;29.10;;;436.00;2355.20;;;;;;5102179;28;20052;-75
2022/10/30 09:57:12;;;;;;;45.55;29.15;;;436.00;2355.20;;;;;;5113118;28;20078;-79
2022/10/30 10:00:09;;;;;;;41.97;27.77;;;460.90;2380.80;;;;;;5101054;28;20091;-78
2022/10/30 10:02:52;;;;;;;39.55;30.73;;;461.20;2380.80;;;;;;5080168;28;20032;-79
2022/10/30 10:05:22;;;;;;;38.55;27.73;;;461.20;2380.80;;;;;;5095085;28;20031;-79
2022/10/30 10:07:51;;;;;;;35.97;26.98;;;461.40;2380.80;;;;;;5102890;28;20421;-78
2022/10/30 10:10:21;;;;;;;36.05;27.17;;;461.50;2380.80;;;;;;5134562;27;20107;-77
2022/10/30 10:12:50;;;;;;;36.65;27.63;;;486.50;2380.80;;;;;;5076373;28;20097;-77
2022/10/30 10:15:28;;;;;;;37.38;28.48;;;486.70;2380.80;;;;;;5093692;28;20024;-76
2022/10/30 10:17:55;;;;;;;42.03;29.23;;;486.70;2380.80;;;;;;5091752;28;20035;-77
2022/10/30 10:20:45;;;;;;;44.22;30.90;;;486.80;2380.80;;;;;;5089991;28;20021;-78
2022/10/30 10:23:18;;;;;;;47.47;33.97;;;486.90;2380.80;;;;;;5127772;27;20043;-78
2022/10/30 10:25:49;;;;;;;51.67;36.67;;;487.30;2380.80;;;;;;5128521;27;20107;-78
2022/10/30 10:28:40;;;;;;;52.35;36.28;;;512.00;2380.80;;;;;;5099297;28;20031;-76
2022/10/30 10:31:26;;;;;;;52.47;37.22;;;512.10;2380.80;;;;;;5119925;27;20492;-76
2022/10/30 10:33:58;;;;;;;52.03;37.97;;;512.30;2380.80;;;;;;5081265;28;20039;-77
2022/10/30 10:37:21;;;;;;;53.42;35.25;;;512.50;2380.80;;;;;;5102679;28;20255;-77
2022/10/30 10:40:01;;;;;;;52.70;37.72;;;512.70;2380.80;;;;;;5074109;28;20051;-79
2022/10/30 10:42:51;;;;;;;53.28;37.78;;;512.90;2380.80;;;;;;5082458;28;20130;-78
2022/10/30 10:45:37;;;;;;;56.88;38.60;;;537.60;2406.40;;;;;;5080323;28;20146;-77
2022/10/30 10:48:24;;;;;;;54.33;39.65;;;537.90;2406.40;;;;;;5092343;28;20034;-82
2022/10/30 10:51:16;;;;;;;58.55;39.13;;;537.90;2406.40;;;;;;5108787;28;20020;-80
2022/10/30 10:53:44;;;;;;;59.22;40.95;;;538.00;2406.40;;;;;;4993670;28;20522;-84
2022/10/30 10:56:11;;;;;;;55.72;39.65;;;538.10;2406.40;;;;;;4977187;28;20043;-84
2022/10/30 10:58:53;;;;;;;59.42;39.75;;;538.10;2406.40;;;;;;4990669;28;20081;-83
2022/10/30 11:01:36;;;;;;;58.50;40.05;;;538.20;2406.40;;;;;;4981925;28;20088;-81
2022/10/30 11:04:14;;;;;;;56.38;40.47;;;538.40;2406.40;;;;;;4993571;28;20101;-80
2022/10/30 11:06:48;;;;;;;51.78;38.03;;;538.40;2406.40;;;;;;4993959;28;20030;-80
2022/10/30 11:09:15;;;;;;;49.88;36.78;;;538.40;2406.40;;;;;;4994882;28;20026;-81
2022/10/30 11:11:42;;;;;;;53.85;37.15;;;538.50;2406.40;;;;;;4996102;28;20492;-79
2022/10/30 11:14:23;;;;;;;82.30;42.78;;;538.50;2406.40;;;;;;5013374;28;20038;-85
2022/10/30 11:17:20;;;;;;;49.03;33.92;;;563.20;2432.00;;;;;;5013012;28;20072;-82
2022/10/30 11:19:50;;;;;;;49.65;34.78;;;563.30;2432.00;;;;;;4977427;28;20492;-81
2022/10/30 11:22:27;;;;;;;41.35;30.92;;;563.30;2432.00;;;;;;4976879;28;20042;-79
2022/10/30 11:24:53;;;;;;;46.58;33.30;;;563.30;2432.00;;;;;;4977127;28;20121;-80
2022/10/30 11:27:27;;;;;;;47.28;32.42;;;563.20;2432.00;;;;;;4992707;28;20057;-86
2022/10/30 11:30:04;;;;;;;41.90;30.48;;;563.30;2432.00;;;;;;5003664;28;20041;-81
2022/10/30 11:32:32;;;;;;;44.40;33.17;;;563.30;2432.00;;;;;;5072048;28;20037;-83
2022/10/30 11:35:10;;;;;;;40.53;32.13;;;563.30;2432.00;;;;;;5055753;28;20059;-82
2022/10/30 11:37:37;;;;;;;45.20;34.33;;;563.40;2432.00;;;;;;5055551;28;20040;-80
2022/10/30 11:40:06;;;;;;;50.17;33.20;;;563.60;2432.00;;;;;;5055024;28;20037;-82
2022/10/30 11:42:33;;;;;;;42.03;31.60;;;563.60;2432.00;;;;;;5072047;28;20090;-81
2022/10/30 11:44:59;;;;;;;45.40;33.53;;;563.50;2432.00;;;;;;5071966;28;20024;-80
2022/10/30 11:47:36;;;;;;;43.45;32.80;;;538.50;2406.40;;;;;;5071997;28;20028;-84
2022/10/30 11:50:15;;;;;;;43.35;32.72;;;538.50;2406.40;;;;;;5042044;28;20037;-82
2022/10/30 11:52:42;;;;;;;45.60;32.83;;;538.50;2406.40;;;;;;5053573;28;20044;-80
2022/10/30 11:55:37;;;;;;;47.75;33.95;;;538.50;2406.40;;;;;;5040826;28;20056;-80
2022/10/30 11:58:06;;;;;;;49.95;35.20;;;563.20;2432.00;;;;;;5097400;28;20496;-79
2022/10/30 12:00:35;;;;;;;44.72;34.42;;;563.20;2432.00;;;;;;5095174;28;20032;-79
2022/10/30 12:03:02;;;;;;;47.30;34.83;;;538.50;2406.40;;;;;;5104356;28;20069;-79
2022/10/30 12:05:37;;;;;;;45.67;35.95;;;538.50;2406.40;;;;;;5139145;27;20050;-79
2022/10/30 12:08:05;;;;;;;51.28;36.85;;;538.50;2406.40;;;;;;5097656;28;20432;-79